Time;durP1;ratioP1;P1;durP2;ratioP2;P2;SDS_P1;SDS_P2;PMS_P1;PMS_P2;Temp;Humidity;BMP_temperature;BMP_pressure;BME280_temperature;BME280_humidity;BME280_pressure;Samples;Min_cycle;Max_cycle;Signal;HPM_P1;HPM_P2
2022/06/01 00:02:05;;;;;;;14.65;10.07;;;11.10;99.90;;;;;;5032496;28;20100;-87
2022/06/01 00:04:30;;;;;;;17.23;11.23;;;10.90;99.90;;;;;;5015804;28;20370;-86
2022/06/01 00:06:57;;;;;;;13.93;10.63;;;11.50;99.90;;;;;;5032462;28;20052;-86
2022/06/01 00:09:27;;;;;;;16.13;11.20;;;10.90;99.90;;;;;;5015883;28;20038;-87
2022/06/01 00:11:53;;;;;;;15.82;11.63;;;10.90;99.90;;;;;;5032416;28;20045;-86
2022/06/01 00:14:19;;;;;;;15.85;11.50;;;10.90;99.90;;;;;;5032367;28;20485;-86
2022/06/01 00:16:45;;;;;;;16.30;11.40;;;11.40;99.90;;;;;;5032058;28;20401;-86
2022/06/01 00:19:12;;;;;;;15.88;11.32;;;10.90;99.90;;;;;;5016010;28;20437;-87
2022/06/01 00:22:11;;;;;;;15.95;11.45;;;11.00;99.90;;;;;;5032149;28;20064;-86
2022/06/01 00:24:23;;;;;;;;;;;10.90;99.90;;;;;;5033149;28;20061;-87
2022/06/01 00:26:50;;;;;;;;;;;10.80;99.90;;;;;;5032633;28;20356;-86
2022/06/01 00:29:16;;;;;;;17.25;12.25;;;11.00;99.90;;;;;;5032321;28;20015;-86
2022/06/01 00:31:42;;;;;;;16.73;11.85;;;11.00;99.90;;;;;;5032188;28;20098;-87
2022/06/01 00:34:07;;;;;;;17.35;12.77;;;10.70;99.90;;;;;;5032304;28;20136;-86
2022/06/01 00:36:33;;;;;;;17.45;13.32;;;10.70;99.90;;;;;;5032126;28;20053;-86
2022/06/01 00:38:59;;;;;;;22.23;13.93;;;11.30;99.90;;;;;;5033859;28;20040;-86
2022/06/01 00:41:24;;;;;;;19.08;13.55;;;11.00;99.90;;;;;;5035969;28;20045;-86
2022/06/01 00:43:50;;;;;;;19.45;13.43;;;10.60;99.90;;;;;;5036216;28;20047;-86
2022/06/01 00:46:16;;;;;;;21.00;14.70;;;11.30;99.90;;;;;;5035738;28;20527;-86
2022/06/01 00:48:46;;;;;;;19.02;13.98;;;10.50;99.90;;;;;;5019292;28;20370;-86
2022/06/01 00:51:14;;;;;;;20.83;13.98;;;10.50;99.90;;;;;;5035688;28;20056;-87
2022/06/01 00:53:44;;;;;;;18.25;13.73;;;10.70;99.90;;;;;;5035798;28;20042;-86
2022/06/01 00:56:19;;;;;;;19.40;13.70;;;11.10;99.90;;;;;;5035883;28;20091;-86
2022/06/01 00:58:49;;;;;;;21.17;14.70;;;11.10;99.90;;;;;;5019525;28;20436;-87
2022/06/01 01:01:18;;;;;;;20.92;14.57;;;10.90;99.90;;;;;;5019171;28;20440;-86
2022/06/01 01:03:49;;;;;;;19.42;14.88;;;11.20;99.90;;;;;;5035678;28;20046;-87
2022/06/01 01:06:23;;;;;;;21.08;15.63;;;10.60;99.90;;;;;;5038107;28;20548;-86
2022/06/01 01:08:49;;;;;;;22.55;15.63;;;10.50;99.90;;;;;;5036230;28;20043;-87
2022/06/01 01:11:25;;;;;;;21.88;16.38;;;10.80;99.90;;;;;;5035447;28;20048;-87
2022/06/01 01:13:53;;;;;;;21.50;16.40;;;11.20;99.90;;;;;;5040694;28;20045;-87
2022/06/01 01:16:20;;;;;;;23.38;17.33;;;10.80;99.90;;;;;;5018924;28;20083;-86
2022/06/01 01:18:46;;;;;;;24.55;17.92;;;10.50;99.90;;;;;;5035411;28;20518;-86
2022/06/01 01:21:28;;;;;;;24.80;18.15;;;10.50;99.90;;;;;;5019187;28;20396;-87
2022/06/01 01:24:09;;;;;;;23.88;17.98;;;10.40;99.90;;;;;;5035363;28;20416;-87
2022/06/01 01:26:37;;;;;;;21.48;15.43;;;10.40;99.90;;;;;;5019006;28;20077;-87
2022/06/01 01:29:09;;;;;;;25.83;16.77;;;10.50;99.90;;;;;;5035052;28;20042;-86
2022/06/01 01:31:35;;;;;;;21.48;16.35;;;10.40;99.90;;;;;;5035123;28;20049;-87
2022/06/01 01:34:01;;;;;;;25.30;18.00;;;11.00;99.90;;;;;;5035021;28;20037;-87
2022/06/01 01:36:35;;;;;;;26.15;18.48;;;11.00;99.90;;;;;;5018474;28;20136;-86
2022/06/01 01:39:05;;;;;;;25.35;18.73;;;10.40;99.90;;;;;;5034982;28;20041;-86
2022/06/01 01:41:44;;;;;;;25.17;18.30;;;10.90;99.90;;;;;;5041022;28;20049;-86
2022/06/01 01:44:15;;;;;;;25.30;19.05;;;10.40;99.90;;;;;;5029620;28;20048;-87
2022/06/01 01:46:45;;;;;;;24.50;18.40;;;10.30;99.90;;;;;;5035091;28;20485;-86
2022/06/01 01:49:10;;;;;;;24.35;17.45;;;10.30;99.90;;;;;;5034875;28;20129;-87
2022/06/01 01:51:37;;;;;;;25.10;18.83;;;10.70;99.90;;;;;;5034293;28;20529;-86
2022/06/01 01:54:17;;;;;;;26.25;18.60;;;10.30;99.90;;;;;;5034713;28;20076;-86
2022/06/01 01:57:10;;;;;;;26.50;19.13;;;10.30;99.90;;;;;;5018311;28;20037;-86
2022/06/01 01:59:48;;;;;;;28.65;19.98;;;10.30;99.90;;;;;;5034553;28;20555;-86
2022/06/01 02:02:34;;;;;;;27.30;20.27;;;10.20;99.90;;;;;;5018238;28;20045;-86
2022/06/01 02:08:23;;;;;;;27.55;20.05;;;11.00;99.90;;;;;;5034514;28;20050;-87
2022/06/01 02:14:34;;;;;;;24.73;17.95;;;10.30;99.90;;;;;;5034623;28;20432;-86
2022/06/01 02:17:06;;;;;;;25.48;17.48;;;10.40;99.90;;;;;;5017488;28;20096;-86
2022/06/01 02:19:50;;;;;;;24.83;16.98;;;10.40;99.90;;;;;;5017617;28;20461;-87
2022/06/01 02:22:16;;;;;;;26.02;17.58;;;10.40;99.90;;;;;;5034183;28;20128;-87
2022/06/01 02:24:43;;;;;;;26.60;18.40;;;10.40;99.90;;;;;;5034274;28;20229;-88
2022/06/01 02:27:11;;;;;;;21.73;13.70;;;10.40;99.90;;;;;;5033767;28;20045;-87
2022/06/01 02:30:01;;;;;;;19.67;14.43;;;10.50;99.90;;;;;;5017470;28;20049;-86
2022/06/01 02:32:28;;;;;;;20.67;13.93;;;10.40;99.90;;;;;;5034384;28;20496;-87
2022/06/01 02:34:56;;;;;;;20.17;13.52;;;11.10;99.90;;;;;;5018053;28;20056;-88
2022/06/01 02:37:22;;;;;;;18.80;13.05;;;10.70;99.90;;;;;;5017711;28;20408;-87
2022/06/01 02:39:53;;;;;;;20.02;13.52;;;10.40;99.90;;;;;;5017572;28;20084;-87
2022/06/01 02:42:25;;;;;;;20.48;13.60;;;10.90;99.90;;;;;;5033654;28;20148;-87
2022/06/01 02:44:57;;;;;;;21.10;13.38;;;10.80;99.90;;;;;;5017237;28;20050;-87
2022/06/01 02:47:24;;;;;;;21.45;13.38;;;10.40;99.90;;;;;;5033731;28;20129;-87
2022/06/01 02:49:50;;;;;;;22.35;13.70;;;10.80;99.90;;;;;;5016993;28;20484;-87
2022/06/01 02:52:16;;;;;;;21.88;14.73;;;11.10;99.90;;;;;;5017032;28;20038;-87
2022/06/01 02:54:43;;;;;;;23.88;14.55;;;10.50;99.90;;;;;;5033456;28;20067;-87
2022/06/01 02:57:09;;;;;;;21.40;14.00;;;10.30;99.90;;;;;;5017112;28;20045;-87
2022/06/01 02:59:35;;;;;;;24.45;15.27;;;10.70;99.90;;;;;;5017923;28;20124;-86
2022/06/01 03:02:02;;;;;;;22.35;14.52;;;10.30;99.90;;;;;;5040788;28;20045;-86
2022/06/01 03:04:27;;;;;;;26.75;15.90;;;10.30;99.90;;;;;;5027290;28;20038;-86
2022/06/01 03:06:53;;;;;;;28.65;16.70;;;10.30;99.90;;;;;;5023861;28;20045;-86
2022/06/01 03:09:19;;;;;;;29.13;16.95;;;10.80;99.90;;;;;;5020650;28;20048;-87
2022/06/01 03:11:45;;;;;;;26.48;16.42;;;10.50;99.90;;;;;;5016788;28;20046;-87
2022/06/01 03:14:11;;;;;;;27.25;15.65;;;10.40;99.90;;;;;;5016566;28;20049;-86
2022/06/01 03:16:37;;;;;;;25.52;16.10;;;10.60;99.90;;;;;;5016621;28;20064;-87
2022/06/01 03:19:05;;;;;;;27.17;17.48;;;11.10;99.90;;;;;;5016736;28;20110;-87
2022/06/01 03:21:31;;;;;;;28.92;17.55;;;10.80;99.90;;;;;;5033205;28;20049;-87
2022/06/01 03:23:56;;;;;;;25.73;16.52;;;10.70;99.90;;;;;;5016553;28;20045;-87
2022/06/01 03:26:23;;;;;;;27.75;17.70;;;10.80;99.90;;;;;;5016548;28;20045;-87
2022/06/01 03:28:50;;;;;;;27.95;17.45;;;10.70;99.90;;;;;;5033066;28;20057;-86
2022/06/01 03:31:18;;;;;;;28.58;17.80;;;10.40;99.90;;;;;;5032878;28;20145;-87
2022/06/01 03:33:44;;;;;;;26.02;16.90;;;10.40;99.90;;;;;;5016384;28;20519;-87
2022/06/01 03:36:10;;;;;;;22.85;14.30;;;10.80;99.90;;;;;;5033137;28;20077;-87
2022/06/01 03:38:37;;;;;;;24.33;15.15;;;10.60;99.90;;;;;;5032641;28;20084;-86
2022/06/01 03:41:04;;;;;;;20.90;14.00;;;10.90;99.90;;;;;;5016211;28;20127;-87
2022/06/01 03:43:30;;;;;;;20.52;13.70;;;10.90;99.90;;;;;;5032604;28;20497;-86
2022/06/01 03:45:57;;;;;;;21.48;13.93;;;11.00;99.90;;;;;;5032552;28;20224;-86
2022/06/01 03:48:28;;;;;;;16.70;11.93;;;11.10;99.90;;;;;;5016247;28;20366;-87
2022/06/01 03:50:56;;;;;;;17.80;12.18;;;10.30;99.90;;;;;;5032624;28;20060;-87
2022/06/01 03:53:23;;;;;;;18.52;12.57;;;10.70;99.90;;;;;;5032434;28;20041;-87
2022/06/01 03:55:49;;;;;;;17.10;11.70;;;10.70;99.90;;;;;;5018692;28;20156;-86
2022/06/01 03:58:18;;;;;;;19.85;12.73;;;10.40;99.90;;;;;;5019029;28;20137;-86
2022/06/01 04:00:45;;;;;;;16.05;11.55;;;10.80;99.90;;;;;;5032475;28;20046;-86
2022/06/01 04:03:11;;;;;;;18.10;11.07;;;10.40;99.90;;;;;;5016020;28;20049;-87
2022/06/01 04:05:37;;;;;;;18.45;11.90;;;10.50;99.90;;;;;;5015850;28;20042;-86
2022/06/01 04:08:03;;;;;;;16.85;11.05;;;11.10;99.90;;;;;;5032302;28;20132;-86
2022/06/01 04:10:36;;;;;;;18.67;11.82;;;10.40;99.90;;;;;;5032228;28;20075;-86
2022/06/01 04:13:02;;;;;;;19.38;12.32;;;10.60;99.90;;;;;;5016119;28;20091;-86
2022/06/01 04:15:28;;;;;;;17.30;11.30;;;11.10;99.90;;;;;;5036327;28;20048;-86
2022/06/01 04:17:54;;;;;;;17.05;12.15;;;10.80;99.90;;;;;;5019985;28;20051;-87
2022/06/01 04:20:19;;;;;;;17.65;11.00;;;11.20;99.90;;;;;;5036634;28;20099;-86
2022/06/01 04:22:46;;;;;;;17.30;11.27;;;10.50;99.90;;;;;;5036216;28;20045;-87
2022/06/01 04:25:15;;;;;;;17.65;11.52;;;11.00;99.90;;;;;;5036092;28;20049;-86
2022/06/01 04:27:41;;;;;;;15.85;11.10;;;10.60;99.90;;;;;;5036124;28;20056;-86
2022/06/01 04:30:09;;;;;;;15.23;10.57;;;10.50;99.90;;;;;;5036258;28;20049;-86
2022/06/01 04:32:35;;;;;;;15.27;9.98;;;10.40;99.90;;;;;;5019897;28;20546;-86
2022/06/01 04:35:02;;;;;;;14.40;9.82;;;10.40;99.90;;;;;;5019680;28;20084;-86
2022/06/01 04:37:28;;;;;;;16.13;10.27;;;10.40;99.90;;;;;;5036599;28;20377;-86
2022/06/01 04:39:54;;;;;;;14.05;9.70;;;10.70;99.90;;;;;;5020284;28;20055;-87
2022/06/01 04:42:19;;;;;;;15.52;10.52;;;10.40;99.90;;;;;;5035897;28;20092;-86
2022/06/01 04:44:46;;;;;;;15.85;10.55;;;10.40;99.90;;;;;;5019687;28;20045;-86
2022/06/01 04:47:12;;;;;;;16.40;10.32;;;10.30;99.90;;;;;;5019267;28;20045;-87
2022/06/01 04:49:38;;;;;;;14.98;10.93;;;10.50;99.90;;;;;;5036672;28;20048;-87
2022/06/01 04:52:05;;;;;;;14.52;10.07;;;11.00;99.90;;;;;;5043989;28;20112;-87
2022/06/01 04:54:30;;;;;;;15.57;10.95;;;10.40;99.90;;;;;;5058374;28;20021;-87
2022/06/01 04:56:56;;;;;;;15.45;10.80;;;10.60;99.90;;;;;;5042019;28;20053;-87
2022/06/01 04:59:21;;;;;;;16.40;11.25;;;10.90;99.90;;;;;;5043926;28;20025;-87
2022/06/01 05:01:47;;;;;;;16.13;11.57;;;10.40;99.90;;;;;;5042666;28;20544;-87
2022/06/01 05:04:13;;;;;;;18.45;11.65;;;10.40;99.90;;;;;;5055465;28;20054;-87
2022/06/01 05:06:39;;;;;;;19.10;12.32;;;11.20;99.90;;;;;;5054798;28;20087;-87
2022/06/01 05:09:05;;;;;;;21.70;14.43;;;11.10;99.90;;;;;;5051189;28;20045;-87
2022/06/01 05:11:34;;;;;;;23.08;15.40;;;10.40;99.90;;;;;;5034254;28;20084;-87
2022/06/01 05:14:00;;;;;;;23.50;15.45;;;10.90;99.90;;;;;;5039813;28;20041;-87
2022/06/01 05:16:26;;;;;;;26.00;15.85;;;11.30;99.90;;;;;;5035694;28;20463;-87
2022/06/01 05:18:52;;;;;;;25.70;15.43;;;10.50;99.90;;;;;;5036359;28;20088;-86
2022/06/01 05:21:18;;;;;;;27.15;16.83;;;11.30;99.90;;;;;;5019836;28;20053;-87
2022/06/01 05:23:44;;;;;;;27.45;17.73;;;10.60;99.90;;;;;;5035722;28;20050;-87
2022/06/01 05:26:10;;;;;;;31.98;19.75;;;10.80;99.90;;;;;;5018221;28;20612;-87
2022/06/01 05:28:35;;;;;;;31.85;20.73;;;10.70;99.90;;;;;;5036463;28;20136;-87
2022/06/01 05:31:04;;;;;;;31.42;20.58;;;11.00;99.90;;;;;;5036193;28;20493;-87
2022/06/01 05:33:30;;;;;;;33.05;20.42;;;10.70;99.90;;;;;;5035397;28;20045;-87
2022/06/01 05:35:56;;;;;;;36.92;22.70;;;11.00;99.90;;;;;;5035486;28;20469;-87
2022/06/01 05:38:22;;;;;;;35.10;21.55;;;11.40;99.90;;;;;;5018264;28;20045;-87
2022/06/01 05:40:47;;;;;;;35.72;22.20;;;11.30;99.90;;;;;;5035081;28;20128;-87
2022/06/01 05:43:15;;;;;;;33.40;21.75;;;11.20;99.90;;;;;;5018321;28;20056;-87
2022/06/01 05:45:41;;;;;;;37.15;22.88;;;11.90;99.90;;;;;;5035092;28;20041;-87
2022/06/01 05:48:09;;;;;;;35.25;21.38;;;12.20;99.90;;;;;;5018531;28;20048;-87
2022/06/01 05:50:35;;;;;;;34.92;21.58;;;11.90;99.90;;;;;;5034877;28;20100;-87
2022/06/01 05:53:00;;;;;;;30.25;20.45;;;12.20;99.90;;;;;;5018025;28;20066;-87
2022/06/01 05:55:28;;;;;;;30.45;19.35;;;11.70;99.90;;;;;;5018184;28;20203;-87
2022/06/01 05:57:53;;;;;;;26.42;17.83;;;12.30;99.90;;;;;;5034590;28;20046;-87
2022/06/01 06:00:19;;;;;;;22.17;15.27;;;12.30;99.90;;;;;;5018148;28;20048;-87
2022/06/01 06:02:45;;;;;;;21.83;14.32;;;11.90;99.90;;;;;;5018031;28;20126;-87
2022/06/01 06:07:57;;;;;;;14.23;10.23;;;12.30;99.90;;;;;;5034307;28;20301;-86
2022/06/01 06:10:23;;;;;;;11.20;7.63;;;11.90;99.90;;;;;;5035882;28;20049;-86
2022/06/01 06:12:49;;;;;;;14.85;7.72;;;12.20;99.90;;;;;;5034519;28;20079;-85
2022/06/01 06:15:15;;;;;;;14.73;9.70;;;11.90;99.90;;;;;;5017876;28;20103;-85
2022/06/01 06:17:41;;;;;;;17.55;9.73;;;11.40;99.90;;;;;;5033976;28;20136;-85
2022/06/01 06:20:07;;;;;;;18.30;10.82;;;11.30;99.90;;;;;;5017656;28;20132;-84
2022/06/01 06:22:33;;;;;;;17.40;9.88;;;11.20;99.90;;;;;;5034010;28;20041;-85
2022/06/01 06:24:59;;;;;;;16.30;10.02;;;11.20;99.90;;;;;;5034109;28;20103;-85
2022/06/01 06:27:27;;;;;;;13.27;8.93;;;11.30;99.90;;;;;;5033828;28;20048;-85
2022/06/01 06:29:53;;;;;;;14.60;9.00;;;11.60;99.90;;;;;;5034107;28;20048;-85
2022/06/01 06:32:19;;;;;;;14.32;8.77;;;10.90;99.90;;;;;;5034183;28;20041;-85
2022/06/01 06:34:45;;;;;;;14.00;9.07;;;10.80;99.90;;;;;;5017354;28;20041;-86
2022/06/01 06:37:11;;;;;;;15.27;9.45;;;11.30;99.90;;;;;;5016970;28;20042;-86
2022/06/01 06:39:36;;;;;;;13.07;9.20;;;11.50;99.90;;;;;;5017378;28;20148;-86
2022/06/01 06:42:02;;;;;;;13.30;8.65;;;10.90;99.90;;;;;;5034101;28;20083;-85
2022/06/01 06:44:28;;;;;;;17.65;10.45;;;10.90;99.90;;;;;;5033684;28;20481;-85
2022/06/01 06:46:54;;;;;;;15.35;9.70;;;11.40;99.90;;;;;;5033672;28;20517;-85
2022/06/01 06:49:20;;;;;;;15.10;9.93;;;10.80;99.90;;;;;;5033628;28;20053;-86
2022/06/01 06:51:45;;;;;;;15.88;10.48;;;10.90;99.90;;;;;;5033608;28;20049;-86
2022/06/01 06:54:11;;;;;;;14.93;9.93;;;10.90;99.90;;;;;;5033505;28;20124;-85
2022/06/01 06:56:37;;;;;;;15.73;10.75;;;11.30;99.90;;;;;;5033228;28;20045;-86
2022/06/01 06:59:04;;;;;;;17.48;10.75;;;11.20;99.90;;;;;;5033253;28;20041;-85
2022/06/01 07:01:30;;;;;;;17.38;10.50;;;10.90;99.90;;;;;;5016788;28;20046;-86
2022/06/01 07:03:55;;;;;;;16.88;11.48;;;10.90;99.90;;;;;;5033419;28;20552;-86
2022/06/01 07:06:24;;;;;;;17.63;11.18;;;11.60;99.90;;;;;;5016576;28;20504;-85
2022/06/01 07:08:52;;;;;;;15.20;10.85;;;11.20;99.90;;;;;;5033106;28;20037;-85
2022/06/01 07:11:27;;;;;;;14.63;11.00;;;11.80;99.90;;;;;;5016592;28;20095;-85
2022/06/01 07:13:52;;;;;;;13.23;8.93;;;12.20;99.90;;;;;;5016662;28;20045;-85
2022/06/01 07:16:21;;;;;;;8.20;6.38;;;11.60;99.90;;;;;;5042365;28;20054;-86
2022/06/01 07:18:49;;;;;;;7.72;5.60;;;12.00;99.90;;;;;;5029989;28;20071;-85
2022/06/01 07:21:16;;;;;;;9.45;5.93;;;12.20;99.90;;;;;;5039918;28;20485;-85
2022/06/01 07:23:42;;;;;;;7.72;5.57;;;13.20;99.90;;;;;;5016472;28;20140;-86
2022/06/01 07:26:49;;;;;;;11.63;7.68;;;13.40;99.90;;;;;;5016301;28;20053;-86
2022/06/01 07:29:16;;;;;;;8.00;5.28;;;13.00;99.90;;;;;;5032998;28;20053;-85
2022/06/01 07:31:43;;;;;;;4.80;4.15;;;13.80;99.90;;;;;;5016116;28;20481;-85
2022/06/01 07:34:08;;;;;;;6.93;4.80;;;13.70;99.90;;;;;;5032683;28;20522;-86
2022/06/01 07:36:35;;;;;;;4.90;3.67;;;13.50;99.90;;;;;;5032759;28;20041;-85
2022/06/01 07:44:52;;;;;;;4.60;2.92;;;12.80;99.90;;;;;;5034421;28;20042;-85
2022/06/01 07:47:18;;;;;;;4.85;2.95;;;13.00;99.90;;;;;;5032590;28;20053;-85
2022/06/01 07:49:45;;;;;;;4.25;3.05;;;13.80;99.90;;;;;;5015849;28;20433;-85
2022/06/01 07:52:13;;;;;;;5.63;2.92;;;13.40;99.90;;;;;;5016092;28;20068;-86
2022/06/01 07:54:41;;;;;;;4.53;2.70;;;13.80;99.90;;;;;;5016155;28;20473;-85
2022/06/01 07:57:13;;;;;;;2.95;1.70;;;14.30;99.90;;;;;;5032541;28;20042;-85
2022/06/01 07:59:38;;;;;;;3.75;2.40;;;14.00;99.90;;;;;;5032751;28;20366;-85
2022/06/01 08:02:09;;;;;;;3.25;2.35;;;14.20;99.90;;;;;;5032718;28;20037;-84
2022/06/01 08:04:35;;;;;;;3.20;2.30;;;14.20;99.90;;;;;;5032542;28;20049;-86
2022/06/01 08:07:01;;;;;;;3.40;2.50;;;15.10;99.90;;;;;;5015955;28;20179;-85
2022/06/01 08:09:27;;;;;;;3.88;2.60;;;15.10;99.90;;;;;;5016554;28;20492;-85
2022/06/01 08:14:36;;;;;;;5.00;2.30;;;14.60;99.90;;;;;;5032530;28;20053;-86
2022/06/01 08:17:02;;;;;;;3.15;2.35;;;14.40;99.90;;;;;;5015771;28;20049;-85
2022/06/01 08:19:29;;;;;;;4.13;2.20;;;14.50;99.90;;;;;;5032323;28;20089;-86
2022/06/01 08:21:54;;;;;;;4.68;2.20;;;14.50;99.90;;;;;;5032254;28;20448;-86
2022/06/01 08:24:20;;;;;;;3.28;2.47;;;14.80;99.90;;;;;;5035034;28;20072;-85
2022/06/01 08:26:46;;;;;;;5.93;2.95;;;14.50;99.90;;;;;;5032495;28;20045;-85
2022/06/01 08:29:11;;;;;;;5.32;2.90;;;14.40;99.90;;;;;;5015575;28;20092;-85
2022/06/01 08:31:37;;;;;;;4.43;2.90;;;14.40;99.90;;;;;;5032069;28;20080;-85
2022/06/01 08:34:04;;;;;;;6.03;3.20;;;14.40;99.90;;;;;;5032154;28;20048;-85
2022/06/01 08:36:31;;;;;;;4.68;3.30;;;14.80;99.90;;;;;;5032105;28;20076;-85
2022/06/01 08:38:56;;;;;;;4.68;3.20;;;14.80;99.90;;;;;;5031926;28;20481;-85
2022/06/01 08:41:31;;;;;;;4.03;3.30;;;15.20;99.90;;;;;;5031992;28;20053;-85
2022/06/01 08:44:03;;;;;;;;;;;15.10;99.90;;;;;;5032285;28;20488;-86
2022/06/01 08:46:31;;;;;;;4.80;3.00;;;15.20;99.90;;;;;;5032073;28;20016;-87
2022/06/01 08:49:01;;;;;;;4.82;3.22;;;15.40;99.90;;;;;;5015378;28;20041;-86
2022/06/01 08:51:29;;;;;;;5.57;3.40;;;15.50;99.90;;;;;;5031608;28;20045;-86
2022/06/01 08:53:57;;;;;;;4.30;3.58;;;15.70;99.90;;;;;;5015528;28;20038;-86
2022/06/01 08:56:40;;;;;;;4.22;2.88;;;15.90;99.90;;;;;;5015622;28;20490;-87
2022/06/01 08:59:25;;;;;;;3.67;2.88;;;15.80;99.90;;;;;;5015839;28;20091;-87
2022/06/01 09:02:18;;;;;;;3.88;2.80;;;16.00;99.90;;;;;;5036122;28;20119;-87
2022/06/01 09:04:54;;;;;;;3.15;2.30;;;16.20;99.90;;;;;;5035580;28;20061;-87
2022/06/01 09:07:50;;;;;;;3.03;2.40;;;16.40;99.90;;;;;;5035604;28;20045;-87
2022/06/01 09:10:40;;;;;;;4.45;3.00;;;16.60;99.90;;;;;;5035589;28;20378;-88
2022/06/01 09:13:19;;;;;;;3.50;2.20;;;16.50;99.90;;;;;;5035484;28;20054;-88
2022/06/01 09:15:56;;;;;;;3.80;2.28;;;16.70;99.90;;;;;;5035339;28;20085;-88
2022/06/01 09:18:26;;;;;;;3.78;2.53;;;16.90;99.90;;;;;;5052133;28;20128;-88
2022/06/01 09:23:37;;;;;;;3.50;1.90;;;17.30;99.90;;;;;;5035444;28;20499;-88
2022/06/01 09:26:05;;;;;;;3.67;1.80;;;17.20;99.90;;;;;;5018679;28;20515;-87
2022/06/01 09:28:40;;;;;;;2.50;1.70;;;17.10;99.90;;;;;;5035441;28;20401;-87
2022/06/01 09:31:22;;;;;;;3.72;1.40;;;17.10;99.90;;;;;;5018756;28;20195;-88
2022/06/01 09:33:47;;;;;;;3.45;1.40;;;17.30;99.90;;;;;;5035103;28;20053;-87
2022/06/01 09:36:28;;;;;;;2.55;1.40;;;17.40;99.90;;;;;;5035182;28;20428;-88
2022/06/01 09:39:01;;;;;;;3.25;1.90;;;17.40;99.90;;;;;;5018781;28;20037;-86
2022/06/01 09:41:36;;;;;;;2.80;1.80;;;17.10;99.90;;;;;;5018760;28;20086;-88
2022/06/01 09:44:10;;;;;;;4.88;2.60;;;16.60;99.90;;;;;;5018847;28;20049;-87
2022/06/01 09:46:57;;;;;;;4.60;2.70;;;16.20;99.90;;;;;;5034778;28;20050;-87
2022/06/01 09:49:36;;;;;;;5.68;3.40;;;15.70;99.90;;;;;;5034977;28;20404;-87
2022/06/01 09:52:08;;;;;;;4.35;2.80;;;15.30;99.90;;;;;;5018462;28;20046;-87
2022/06/01 09:54:37;;;;;;;3.15;1.73;;;15.10;99.90;;;;;;5034528;28;20046;-87
2022/06/01 09:57:31;;;;;;;2.42;1.60;;;14.60;99.90;;;;;;5018405;28;20049;-87
2022/06/01 10:08:28;;;;;;;2.53;1.42;;;14.70;99.90;;;;;;5034741;28;20132;-87
2022/06/01 10:11:09;;;;;;;2.20;1.30;;;14.80;99.90;;;;;;5032287;28;20049;-87
2022/06/01 10:13:49;;;;;;;3.17;1.40;;;15.40;99.90;;;;;;5018082;28;20144;-87
2022/06/01 10:16:45;;;;;;;2.08;1.20;;;16.20;99.90;;;;;;5017498;28;20128;-87
2022/06/01 10:19:15;;;;;;;2.85;1.38;;;16.30;99.90;;;;;;4961668;28;20046;-87
2022/06/01 10:21:53;;;;;;;2.50;1.35;;;16.00;99.90;;;;;;4961620;28;20058;-86
2022/06/01 10:24:43;;;;;;;5.55;1.58;;;15.80;99.90;;;;;;4977956;28;20440;-87
2022/06/01 10:27:18;;;;;;;2.75;1.33;;;15.40;99.90;;;;;;4977704;28;20046;-87
2022/06/01 10:29:52;;;;;;;2.40;1.50;;;15.30;99.90;;;;;;4977537;28;20054;-87
2022/06/01 10:32:34;;;;;;;2.88;1.35;;;15.20;99.90;;;;;;4977742;28;20063;-87
2022/06/01 10:35:36;;;;;;;1.85;0.93;;;15.20;99.90;;;;;;4977711;28;20046;-87
2022/06/01 10:38:13;;;;;;;1.83;0.75;;;15.20;99.90;;;;;;4969755;28;20085;-88
2022/06/01 10:40:49;;;;;;;2.33;1.00;;;15.30;99.90;;;;;;5001562;28;20053;-87
2022/06/01 10:43:34;;;;;;;2.63;1.10;;;15.60;99.90;;;;;;4978528;28;20058;-87
2022/06/01 10:46:13;;;;;;;3.13;1.10;;;16.00;99.90;;;;;;4977436;28;20050;-88
2022/06/01 10:48:47;;;;;;;2.78;1.30;;;16.50;99.90;;;;;;4955221;28;20051;-88
2022/06/01 10:51:20;;;;;;;2.22;1.38;;;17.10;99.90;;;;;;4977717;28;20429;-88
2022/06/01 10:53:58;;;;;;;2.88;1.27;;;17.30;99.90;;;;;;4960929;28;20046;-88
2022/06/01 10:56:30;;;;;;;2.28;1.00;;;16.80;99.90;;;;;;5012634;28;20667;-87
2022/06/01 10:59:01;;;;;;;2.58;1.33;;;16.40;99.90;;;;;;5017293;28;20049;-87
2022/06/01 11:01:59;;;;;;;2.30;1.38;;;16.00;99.90;;;;;;5033605;28;20045;-87
2022/06/01 11:04:40;;;;;;;2.72;1.40;;;15.80;99.90;;;;;;5017127;28;20041;-87
2022/06/01 11:07:15;;;;;;;3.92;1.75;;;15.50;99.90;;;;;;5033301;28;20045;-87
2022/06/01 11:10:00;;;;;;;3.85;1.67;;;15.50;99.90;;;;;;5033252;28;20074;-87
2022/06/01 11:12:34;;;;;;;3.05;1.70;;;15.60;99.90;;;;;;5033063;28;20100;-88
2022/06/01 11:15:08;;;;;;;2.80;1.80;;;16.00;99.90;;;;;;5033031;28;20048;-86
2022/06/01 11:18:22;;;;;;;2.72;1.63;;;16.20;99.90;;;;;;5032721;28;20299;-87
2022/06/01 11:21:00;;;;;;;2.90;1.83;;;16.20;99.90;;;;;;5016996;28;20057;-87
2022/06/01 11:23:57;;;;;;;3.42;1.80;;;16.20;99.90;;;;;;5032309;28;20048;-87
2022/06/01 11:27:00;;;;;;;4.32;2.40;;;16.20;99.90;;;;;;5016486;28;20457;-86
2022/06/01 11:29:45;;;;;;;4.35;2.75;;;16.30;99.90;;;;;;4986972;28;20053;-88
2022/06/01 11:32:23;;;;;;;3.88;2.63;;;16.70;99.90;;;;;;5018371;28;20493;-89
2022/06/01 11:35:13;;;;;;;3.65;2.05;;;17.00;99.90;;;;;;5017852;28;20045;-88
2022/06/01 11:37:50;;;;;;;3.47;1.52;;;17.20;99.90;;;;;;5018585;28;20405;-88
2022/06/01 11:40:39;;;;;;;2.10;1.25;;;17.30;99.90;;;;;;5019380;28;20042;-88
2022/06/01 11:43:19;;;;;;;4.22;2.10;;;17.20;99.90;;;;;;5031999;28;20128;-87
2022/06/01 11:45:53;;;;;;;4.05;1.90;;;16.80;99.90;;;;;;5033147;28;20041;-88
2022/06/01 11:48:43;;;;;;;3.00;1.80;;;16.30;99.90;;;;;;5032860;28;20052;-88
2022/06/01 11:51:14;;;;;;;4.70;2.13;;;15.90;99.90;;;;;;5016131;28;20049;-87
2022/06/01 11:54:00;;;;;;;3.67;1.60;;;15.40;99.90;;;;;;5033128;28;20053;-87
2022/06/01 11:56:51;;;;;;;3.80;1.70;;;15.10;99.90;;;;;;5016325;28;20050;-86
2022/06/01 11:59:32;;;;;;;4.30;1.75;;;14.90;99.90;;;;;;5032523;28;20493;-86
2022/06/01 12:02:03;;;;;;;2.83;1.00;;;14.80;99.90;;;;;;5016045;28;20046;-88
2022/06/01 12:05:01;;;;;;;3.33;1.38;;;14.60;99.90;;;;;;5032909;28;20053;-88
2022/06/01 12:07:37;;;;;;;2.38;1.20;;;14.60;99.90;;;;;;5032628;28;20140;-88
2022/06/01 12:10:18;;;;;;;2.00;1.10;;;14.80;99.90;;;;;;5032841;28;20042;-87
2022/06/01 12:13:21;;;;;;;2.08;1.30;;;14.50;99.90;;;;;;5032439;28;20439;-88
2022/06/01 12:16:05;;;;;;;2.58;1.10;;;14.40;99.90;;;;;;5032359;28;20482;-87
2022/06/01 12:18:35;;;;;;;2.90;1.80;;;14.10;99.90;;;;;;5032285;28;20504;-87
2022/06/01 12:21:32;;;;;;;2.50;1.50;;;14.00;99.90;;;;;;5032333;28;20096;-88
2022/06/01 12:29:59;;;;;;;3.40;1.60;;;14.20;99.90;;;;;;5032173;28;20496;-87
2022/06/01 12:32:26;;;;;;;4.22;1.77;;;14.30;99.90;;;;;;5032240;28;20481;-88
2022/06/01 12:35:10;;;;;;;3.05;2.00;;;14.50;99.90;;;;;;5017379;28;20041;-88
2022/06/01 12:37:44;;;;;;;3.28;2.15;;;14.60;99.90;;;;;;5036268;28;20401;-88
2022/06/01 12:40:17;;;;;;;3.20;2.17;;;14.60;99.90;;;;;;5019937;28;20482;-87
2022/06/01 12:43:11;;;;;;;3.67;2.03;;;14.70;99.90;;;;;;5035896;28;20481;-87
2022/06/01 12:45:43;;;;;;;3.10;1.73;;;15.00;99.90;;;;;;5019560;28;20068;-88
2022/06/01 12:48:23;;;;;;;3.90;1.80;;;15.50;99.90;;;;;;5020058;28;20500;-88
2022/06/01 12:51:00;;;;;;;2.80;1.42;;;15.30;99.90;;;;;;5019735;28;20465;-88
2022/06/01 12:53:51;;;;;;;3.15;1.48;;;15.20;99.90;;;;;;5036224;28;20370;-87
2022/06/01 12:56:26;;;;;;;3.53;1.75;;;15.10;99.90;;;;;;5045075;28;20053;-87
2022/06/01 12:58:53;;;;;;;3.50;1.85;;;14.90;99.90;;;;;;5026435;28;20041;-87
2022/06/01 13:01:20;;;;;;;2.60;1.70;;;14.70;99.90;;;;;;5019421;28;20509;-87
2022/06/01 13:03:49;;;;;;;3.22;2.00;;;14.60;99.90;;;;;;5035755;28;20085;-87
2022/06/01 13:06:21;;;;;;;3.10;2.05;;;14.60;99.90;;;;;;5035748;28;20405;-87
2022/06/01 13:09:00;;;;;;;3.05;2.00;;;14.70;99.90;;;;;;5019194;28;20046;-87
2022/06/01 13:11:36;;;;;;;2.80;1.73;;;14.90;99.90;;;;;;5035466;28;20555;-88
2022/06/01 13:14:08;;;;;;;2.83;1.85;;;15.30;99.90;;;;;;5018973;28;20042;-87
2022/06/01 13:16:44;;;;;;;2.58;1.92;;;15.10;99.90;;;;;;5019098;28;20053;-87
2022/06/01 13:19:28;;;;;;;3.17;2.03;;;15.10;99.90;;;;;;5035268;28;20053;-87
2022/06/01 13:22:19;;;;;;;2.40;1.70;;;14.90;99.90;;;;;;5017062;28;20104;-88
2022/06/01 13:24:54;;;;;;;2.67;1.80;;;14.70;99.90;;;;;;5035221;28;20041;-87
2022/06/01 13:27:20;;;;;;;4.43;2.40;;;14.50;99.90;;;;;;5018643;28;20527;-87
2022/06/01 13:29:48;;;;;;;4.25;2.15;;;14.30;99.90;;;;;;5018732;28;20041;-87
2022/06/01 13:32:17;;;;;;;5.30;2.55;;;14.20;99.90;;;;;;5018667;28;20045;-87
2022/06/01 13:35:09;;;;;;;5.88;3.10;;;14.00;99.90;;;;;;5020002;28;20044;-83
2022/06/01 13:37:43;;;;;;;5.20;3.15;;;13.60;99.90;;;;;;5048187;28;20060;-84